To NAV CANADA Home Page Login to a new session Search on AWWS site Feedback and Comments Disclaimer Vers la page française équivalente Tips FAQ What's new on the site To the Forecasts and Observations / NOTAM section To "File a Flight Plan" website Publications and other links Update of the User's profile FIC Telephone Numbers My Weather Data Folder Route Weather Data Regional Weather Data Local Weather Data To the Forecasts and Observations / NOTAM section
Request Generated 03/23/2017 at 00:20:40 UTC . Weather information available at that time is displayed.

METAR/TAF

CALGARY INTL/AB    

METAR CYYC 230000Z 29013KT 40SM FEW082 SCT190 BKN280 13/M07 A2963 RMK
CU1AC2CI2 SLP056 DENSITY ALT 4500FT=
METAR CYYC 222300Z 28014G21KT 40SM FEW083 FEW190 SCT250 13/M08 A2962
RMK CU1AC2CI1 CU TR SLP053 DENSITY ALT 4500FT=
METAR CYYC 222200Z 25009G20KT 230V300 40SM FEW086 SCT180 14/M08 A2961
RMK CU1AC3 SLP049 DENSITY ALT 4600FT=

TAF CYYC 222349Z 2300/2324 28015G25KT P6SM FEW060 SCT200
BECMG 2301/2303 24012KT
FM230900 24008KT P6SM SCT070
FM231400 29015G25KT P6SM SKC
FM232100 28012G22KT P6SM BKN240
RMK NXT FCST BY 230300Z=
Your time UTC time
Weather data provided by Environment Canada and NAV CANADA